createdAt,value
2019-05-14T00:03:51.447Z,65.90
2019-05-14T00:08:53.339Z,66.59
2019-05-14T00:13:55.558Z,66.85
2019-05-14T00:18:57.979Z,67.00
2019-05-14T00:24:01.834Z,67.20
2019-05-14T00:29:04.812Z,67.16
2019-05-14T00:34:07.237Z,67.11
2019-05-14T00:39:11.221Z,67.15
2019-05-14T00:44:13.678Z,67.39
2019-05-14T00:49:16.024Z,66.79
2019-05-14T00:54:18.173Z,65.91
2019-05-14T00:59:21.640Z,66.78
2019-05-14T01:04:24.015Z,66.68
2019-05-14T01:09:26.211Z,66.95
2019-05-14T01:14:28.294Z,66.84
2019-05-14T01:19:31.589Z,66.98
2019-05-14T01:24:33.910Z,66.78
2019-05-14T01:29:37.152Z,66.95
2019-05-14T01:34:41.683Z,65.87
2019-05-14T01:39:43.578Z,67.50
2019-05-14T01:44:45.715Z,66.76
2019-05-14T01:49:47.730Z,67.08
2019-05-14T01:54:51.522Z,67.08
2019-05-14T01:59:53.863Z,66.76
2019-05-14T02:04:56.044Z,67.34
2019-05-14T02:09:58.033Z,67.15
2019-05-14T02:15:01.920Z,67.69
2019-05-14T02:20:05.145Z,68.07
2019-05-14T02:25:07.949Z,68.29
2019-05-14T02:30:10.332Z,67.95
2019-05-14T02:35:12.770Z,67.94
2019-05-14T02:40:14.958Z,67.99
2019-05-14T02:45:19.829Z,67.52
2019-05-14T02:50:21.301Z,68.19
2019-05-14T02:55:23.563Z,68.21
2019-05-14T03:00:25.766Z,67.50
2019-05-14T03:05:29.552Z,68.24
2019-05-14T03:10:32.057Z,68.57
2019-05-14T03:15:34.287Z,68.31
2019-05-14T03:20:38.967Z,68.29
2019-05-14T03:25:40.693Z,69.42
2019-05-14T03:30:44.398Z,68.17
2019-05-14T03:38:52.991Z,63.10
2019-05-14T03:43:55.195Z,69.20
2019-05-14T03:49:00.051Z,69.01
2019-05-14T03:54:07.119Z,68.94
2019-05-14T03:59:09.239Z,69.95
2019-05-14T04:04:10.530Z,69.41
2019-05-14T04:09:13.709Z,69.54
2019-05-14T04:14:20.101Z,70.30
2019-05-14T04:19:23.654Z,70.00
2019-05-14T04:24:29.785Z,70.18
2019-05-14T04:29:34.158Z,70.61
2019-05-14T04:34:39.374Z,71.20
2019-05-14T04:39:40.503Z,71.20
2019-05-14T04:44:42.834Z,71.36
2019-05-14T04:49:44.926Z,76.55
2019-05-14T04:54:49.939Z,71.02
2019-05-14T04:59:51.104Z,71.09
2019-05-14T05:04:53.119Z,71.44
2019-05-14T05:09:55.149Z,71.00
2019-05-14T05:14:58.610Z,71.36
2019-05-14T05:20:00.835Z,71.52
2019-05-14T05:25:03.198Z,71.65
2019-05-14T05:30:05.598Z,71.42
2019-05-14T05:35:09.651Z,71.57
2019-05-14T05:40:12.412Z,71.54
2019-05-14T05:45:14.945Z,71.47
2019-05-14T05:50:19.328Z,70.74
2019-05-14T05:55:21.556Z,69.78
2019-05-14T06:00:34.384Z,71.30
2019-05-14T06:05:44.440Z,71.29
2019-05-14T06:10:48.951Z,70.50
2019-05-14T06:15:52.313Z,71.06
2019-05-14T06:20:54.757Z,67.84
2019-05-14T06:25:59.709Z,71.73
2019-05-14T06:31:01.187Z,68.16
2019-05-14T06:36:03.301Z,69.99
2019-05-14T06:41:05.457Z,71.10
2019-05-14T06:46:09.183Z,70.28
2019-05-14T06:51:12.460Z,67.70
2019-05-14T06:56:17.769Z,71.08
2019-05-14T07:01:18.825Z,70.45
2019-05-14T07:06:20.989Z,69.01
2019-05-14T07:11:24.365Z,70.24
2019-05-14T07:16:28.740Z,71.22
2019-05-14T07:21:30.516Z,70.34
2019-05-14T07:26:32.920Z,71.11
2019-05-14T07:31:35.019Z,63.27
2019-05-14T07:36:38.663Z,66.84
2019-05-14T07:41:40.918Z,69.27
2019-05-14T07:46:43.054Z,69.88
2019-05-14T07:51:45.158Z,63.03
2019-05-14T07:56:50.880Z,69.69
2019-05-14T08:01:51.634Z,67.68
2019-05-14T08:06:53.936Z,67.47
2019-05-14T08:11:58.557Z,66.13
2019-05-14T08:17:00.419Z,69.64
2019-05-14T08:22:02.615Z,68.21
2019-05-14T08:27:05.813Z,68.17
2019-05-14T08:32:08.803Z,68.60
2019-05-14T08:37:11.248Z,69.68
2019-05-14T08:42:13.356Z,68.76
2019-05-14T08:47:18.330Z,66.20
2019-05-14T08:52:20.569Z,61.08
2019-05-14T08:57:22.702Z,67.52
2019-05-14T09:02:25.034Z,68.65
2019-05-14T09:07:28.955Z,57.86
2019-05-14T09:12:31.027Z,64.79
2019-05-14T09:17:33.260Z,68.36
2019-05-14T09:22:36.097Z,65.72
2019-05-14T09:27:38.897Z,64.93
2019-05-14T09:32:41.062Z,67.89
2019-05-14T09:37:43.104Z,62.64
2019-05-14T09:42:45.218Z,59.90
2019-05-14T09:47:50.402Z,55.82
2019-05-14T09:52:51.409Z,66.74
2019-05-14T09:57:53.525Z,60.60
2019-05-14T10:02:55.696Z,65.30
2019-05-14T10:07:59.416Z,55.00
2019-05-14T10:13:02.021Z,56.96
2019-05-14T10:18:05.666Z,65.10
2019-05-14T10:23:09.376Z,66.89
2019-05-14T10:28:11.722Z,64.92
2019-05-14T10:33:14.898Z,66.93
2019-05-14T10:38:19.020Z,67.13
2019-05-14T10:43:21.363Z,66.64
2019-05-14T10:48:23.554Z,62.69
2019-05-14T10:53:28.659Z,62.69
2019-05-14T10:58:29.724Z,64.69
2019-05-14T11:03:31.947Z,64.69
2019-05-14T11:08:33.956Z,66.98
2019-05-14T11:13:36.178Z,65.87
2019-05-14T11:18:40.004Z,66.69
2019-05-14T11:23:43.254Z,68.07
2019-05-14T11:28:45.379Z,57.04
2019-05-14T11:33:49.637Z,57.34
2019-05-14T11:38:52.130Z,64.27
2019-05-14T11:43:54.380Z,54.17
2019-05-14T11:48:59.198Z,52.79
2019-05-14T11:54:00.511Z,58.77
2019-05-14T11:59:02.781Z,63.72
2019-05-14T12:04:08.697Z,62.23
2019-05-14T12:09:11.796Z,65.09
2019-05-14T12:14:14.097Z,63.81
2019-05-14T12:19:18.675Z,63.32
2019-05-14T12:24:20.322Z,63.32
2019-05-14T12:29:22.344Z,62.50
2019-05-14T12:34:29.275Z,64.88
2019-05-14T12:39:31.417Z,61.50
2019-05-14T12:44:37.214Z,61.69
2019-05-14T12:49:39.333Z,63.42
2019-05-14T12:54:41.438Z,62.68
2019-05-14T12:59:43.788Z,63.53
2019-05-14T13:04:48.626Z,64.54
2019-05-14T13:09:50.888Z,65.98
2019-05-14T13:14:52.906Z,60.68
2019-05-14T13:19:56.174Z,58.70
2019-05-14T13:24:58.302Z,60.00
2019-05-14T13:30:00.345Z,62.41
2019-05-14T13:35:02.912Z,65.50
2019-05-14T13:40:05.581Z,59.41
2019-05-14T13:45:10.363Z,65.10
2019-05-14T13:50:12.682Z,58.20
2019-05-14T13:55:15.484Z,61.55
2019-05-14T14:00:19.891Z,63.01
2019-05-14T14:05:21.735Z,60.51
2019-05-14T14:10:24.015Z,64.36
2019-05-14T14:15:28.733Z,64.60
2019-05-14T14:20:30.291Z,63.68
2019-05-14T14:25:32.517Z,60.31
2019-05-14T14:30:34.627Z,65.56
2019-05-14T14:35:38.785Z,55.20
2019-05-14T14:40:40.884Z,56.69
2019-05-14T14:45:45.242Z,48.90
2019-05-14T14:50:49.667Z,54.60
2019-05-14T14:55:51.188Z,64.95
2019-05-14T15:01:00.335Z,64.12
2019-05-14T15:06:02.551Z,64.37
2019-05-14T15:11:04.651Z,61.73
2019-05-14T15:16:12.831Z,64.64
2019-05-14T15:21:11.084Z,62.92
2019-05-14T15:26:13.581Z,52.31
2019-05-14T15:31:15.688Z,57.78
2019-05-14T15:36:19.695Z,51.86
2019-05-14T15:41:22.256Z,62.54
2019-05-14T15:46:24.421Z,60.73
2019-05-14T15:51:28.503Z,61.79
2019-05-14T15:56:30.431Z,63.74
2019-05-14T16:01:32.470Z,61.98
2019-05-14T16:06:34.519Z,63.96
2019-05-14T16:11:36.503Z,63.50
2019-05-14T16:16:39.183Z,64.51
2019-05-14T16:21:41.628Z,64.47
2019-05-14T16:26:43.917Z,64.16
2019-05-14T16:31:48.567Z,63.44
2019-05-14T16:36:50.236Z,61.12
2019-05-14T16:41:52.238Z,58.69
2019-05-14T16:46:54.263Z,62.00
2019-05-14T16:51:59.393Z,58.03
2019-05-14T16:57:00.248Z,57.85
2019-05-14T17:02:02.444Z,61.08
2019-05-14T17:07:04.734Z,61.13
2019-05-14T17:12:08.524Z,61.77
2019-05-14T17:17:10.878Z,57.10
2019-05-14T17:22:25.432Z,62.86
2019-05-14T17:27:17.273Z,62.76
2019-05-14T17:32:19.463Z,63.64
2019-05-14T17:37:23.961Z,62.84
2019-05-14T17:42:28.351Z,61.65
2019-05-14T17:47:30.614Z,63.19
2019-05-14T17:52:32.593Z,54.66
2019-05-14T17:57:35.919Z,54.60
2019-05-14T18:02:38.958Z,59.12
2019-05-14T18:07:41.359Z,61.55
2019-05-14T18:12:43.785Z,62.60
2019-05-14T18:17:46.001Z,63.91
2019-05-14T18:22:48.704Z,63.88
2019-05-14T18:27:50.832Z,63.61
2019-05-14T18:32:54.234Z,63.59
2019-05-14T18:37:56.343Z,64.36
2019-05-14T18:42:59.346Z,64.40
2019-05-14T18:48:01.515Z,60.65
2019-05-14T18:53:03.618Z,62.78
2019-05-14T18:58:08.427Z,61.14
2019-05-14T19:03:10.585Z,63.33
2019-05-14T19:08:12.744Z,58.72
2019-05-14T19:13:14.977Z,58.78
2019-05-14T19:18:19.151Z,59.98
2019-05-14T19:23:21.060Z,55.87
2019-05-14T19:28:23.167Z,60.98
2019-05-14T19:33:25.260Z,58.67
2019-05-14T19:38:27.384Z,61.26
2019-05-14T19:43:29.575Z,57.55
2019-05-14T19:48:33.020Z,63.78
2019-05-14T19:53:35.172Z,63.85
2019-05-14T19:58:38.433Z,61.94
2019-05-14T20:03:40.816Z,61.69
2019-05-14T20:08:43.021Z,60.23
2019-05-14T20:13:45.111Z,64.86
2019-05-14T20:18:48.737Z,59.25
2019-05-14T20:23:51.047Z,58.92
2019-05-14T20:28:53.149Z,63.03
2019-05-14T20:33:55.162Z,61.84
2019-05-14T20:38:58.934Z,64.32
2019-05-14T20:44:01.355Z,64.58
2019-05-14T20:49:03.686Z,65.44
2019-05-14T20:54:05.869Z,65.67
2019-05-14T20:59:08.366Z,61.92
2019-05-14T21:04:10.773Z,64.31
2019-05-14T21:09:13.332Z,65.53
2019-05-14T21:14:18.151Z,65.67
2019-05-14T21:19:19.827Z,66.04
2019-05-14T21:24:22.190Z,66.15
2019-05-14T21:29:24.355Z,63.83
2019-05-14T21:34:28.220Z,64.74
2019-05-14T21:39:30.478Z,65.18
2019-05-14T21:44:32.538Z,65.06
2019-05-14T21:49:34.621Z,63.03
2019-05-14T21:54:39.286Z,64.10
2019-05-14T21:59:40.968Z,62.83
2019-05-14T22:04:42.973Z,64.88
2019-05-14T22:09:45.488Z,63.28
2019-05-14T22:14:48.202Z,64.08
2019-05-14T22:19:50.411Z,63.06
2019-05-14T22:24:52.495Z,63.25
2019-05-14T22:29:54.620Z,64.76
2019-05-14T22:34:58.572Z,66.39
2019-05-14T22:40:00.931Z,65.71
2019-05-14T22:45:03.857Z,64.67
2019-05-14T22:50:08.523Z,66.43
2019-05-14T22:55:10.710Z,65.77
2019-05-14T23:00:13.159Z,65.74
2019-05-14T23:05:19.088Z,66.74
2019-05-14T23:10:21.091Z,66.35
2019-05-14T23:15:24.500Z,66.07
2019-05-14T23:20:28.986Z,65.46
2019-05-14T23:25:30.456Z,65.12
2019-05-14T23:30:32.999Z,66.93
2019-05-14T23:35:35.368Z,68.23
2019-05-14T23:40:38.735Z,68.09
2019-05-14T23:45:41.157Z,67.62
2019-05-14T23:50:43.220Z,66.71
2019-05-14T23:55:45.244Z,67.51
